West Islip, New York
Current Conditions -  °F | °C
As of 10:30 AM on Monday 22 Dec 2014 (Local Time) from KFRG Reporting Station
Overcast Overcast  
Wind Chill: 37°   Ceiling: 1300
Heat Index: 43°   Visibility: 10mi
Dew Point: 37°   Wind: 10mph
Humidity: 80%   Direction: 70°ENE
Pressure: 30.31"   Gusts: NA
Location:  40.71°N, 73.29°W
Report Text: KFRG 221530Z 07009KT 10SM BKN013 OVC021 06/03 A3031 RMK AO2 T00610028
Loading
Personal Weather Stations






























Interactive Weather Map New forecast layout! Learn more

10-Day Weather Forecast

Advertisements
Track Severe Weather on mobile